Time,TemperatureF,DewpointF,PressureIn,WindDirection,WindDirectionDegrees,WindSpeedMPH,WindSpeedGustMPH,Humidity,HourlyPrecipIn,Conditions,Clouds,dailyrainin,SoftwareType,DateUTC
2013-01-17 00:01:00,28.1,5.4,30.09,North,6,2.2,3.1,33,0.00,,,0.00,WSDL version 420,2013-01-17 07:01:00,
2013-01-17 00:06:00,28.5,5.8,30.09,North,360,1.1,3.1,33,0.00,,,0.00,WSDL version 420,2013-01-17 07:06:00,
2013-01-17 00:11:00,28.6,5.8,30.09,ENE,68,2.6,2.7,33,0.00,,,0.00,WSDL version 420,2013-01-17 07:11:00,
2013-01-17 00:16:00,28.8,6.6,30.09,ENE,68,0.9,2.7,34,0.00,,,0.00,WSDL version 420,2013-01-17 07:16:00,
2013-01-17 00:21:00,28.9,6.7,30.09,North,-999,-999.0,-999.0,34,0.00,,,0.00,WSDL version 420,2013-01-17 07:21:00,
2013-01-17 00:26:00,-999.0,-99.9,30.09,East,90,2.2,3.1,-999,0.00,,,0.00,WSDL version 420,2013-01-17 07:26:00,
2013-01-17 00:31:00,28.4,6.2,30.09,SSW,203,1.1,3.4,34,0.00,,,0.00,WSDL version 420,2013-01-17 07:31:00,
2013-01-17 00:36:00,28.0,6.2,30.09,SE,135,1.9,3.4,35,0.00,,,0.00,WSDL version 420,2013-01-17 07:36:00,
2013-01-17 00:41:00,28.0,6.4,30.09,SE,135,2.5,2.7,35,0.00,,,0.00,WSDL version 420,2013-01-17 07:41:00,
2013-01-17 00:46:00,27.8,6.2,30.09,SE,135,2.2,2.9,35,0.00,,,0.00,WSDL version 420,2013-01-17 07:46:00,
2013-01-17 00:51:00,27.4,5.9,30.09,SE,135,2.8,3.1,35,0.00,,,0.00,WSDL version 420,2013-01-17 07:51:00,
2013-01-17 00:56:00,-999.0,-99.9,30.09,SE,135,1.0,3.1,-999,0.00,,,0.00,WSDL version 420,2013-01-17 07:56:00,
2013-01-17 01:01:00,27.5,6.5,30.09,SE,135,0.0,1.3,36,0.00,,,0.00,WSDL version 420,2013-01-17 08:01:00,
2013-01-17 01:06:00,-999.0,-99.9,30.09,SE,135,1.2,2.0,-999,0.00,,,0.00,WSDL version 420,2013-01-17 08:06:00,
2013-01-17 01:11:00,-999.0,-99.9,30.09,SE,135,1.9,2.7,-999,0.00,,,0.00,WSDL version 420,2013-01-17 08:11:00,
2013-01-17 01:16:00,27.3,6.4,30.09,North,-999,-999.0,-999.0,36,0.00,,,0.00,WSDL version 420,2013-01-17 08:16:00,
2013-01-17 01:21:00,-999.0,-99.9,30.09,SE,135,1.3,2.5,-999,0.00,,,0.00,WSDL version 420,2013-01-17 08:21:00,
2013-01-17 01:26:00,-999.0,-99.9,30.09,SE,135,1.6,2.5,-999,0.00,,,0.00,WSDL version 420,2013-01-17 08:26:00,
2013-01-17 01:31:00,26.8,5.9,30.09,SE,135,1.4,2.5,36,0.00,,,0.00,WSDL version 420,2013-01-17 08:31:00,
2013-01-17 01:36:00,-999.0,-99.9,30.09,SE,135,0.6,2.5,-999,0.00,,,0.00,WSDL version 420,2013-01-17 08:36:00,
2013-01-17 01:41:00,-999.0,-99.9,30.09,SE,135,0.0,1.6,-999,0.00,,,0.00,WSDL version 420,2013-01-17 08:41:00,
2013-01-17 01:46:00,26.8,6.1,30.09,SE,135,1.9,2.5,37,0.00,,,0.00,WSDL version 420,2013-01-17 08:46:00,
2013-01-17 01:51:00,-999.0,-99.9,30.09,SE,135,1.3,2.5,-999,0.00,,,0.00,WSDL version 420,2013-01-17 08:51:00,
2013-01-17 01:56:00,26.4,6.3,30.09,ESE,113,2.2,2.5,38,0.00,,,0.00,WSDL version 420,2013-01-17 08:56:00,
2013-01-17 02:01:00,26.4,6.6,30.09,ESE,113,1.0,2.7,38,0.00,,,0.00,WSDL version 420,2013-01-17 09:01:00,
2013-01-17 02:06:00,26.4,6.6,30.09,ESE,113,0.4,2.7,38,0.00,,,0.00,WSDL version 420,2013-01-17 09:06:00,
2013-01-17 02:11:00,26.4,6.6,30.09,ESE,113,0.0,1.6,38,0.00,,,0.00,WSDL version 420,2013-01-17 09:11:00,
2013-01-17 02:18:00,26.4,6.6,30.09,ESE,113,1.3,2.0,38,0.00,,,0.00,WSDL version 420,2013-01-17 09:18:00,
2013-01-17 02:23:00,26.3,6.5,30.09,ESE,113,1.6,2.0,38,0.00,,,0.00,WSDL version 420,2013-01-17 09:23:00,
2013-01-17 02:28:00,26.1,6.3,30.09,North,-999,-999.0,-999.0,38,0.00,,,0.00,WSDL version 420,2013-01-17 09:28:00,
2013-01-17 02:33:00,26.2,6.8,30.09,ESE,113,2.0,2.0,39,0.00,,,0.00,WSDL version 420,2013-01-17 09:33:00,
2013-01-17 02:38:00,26.2,6.9,30.09,ESE,113,0.6,2.0,39,0.00,,,0.00,WSDL version 420,2013-01-17 09:38:00,
2013-01-17 02:43:00,26.2,6.9,30.09,North,-999,-999.0,-999.0,39,0.00,,,0.00,WSDL version 420,2013-01-17 09:43:00,
2013-01-17 02:48:00,26.2,6.9,30.09,ESE,113,0.0,1.3,39,0.00,,,0.00,WSDL version 420,2013-01-17 09:48:00,
2013-01-17 02:53:00,26.1,6.8,30.09,ESE,113,0.0,0.0,39,0.00,,,0.00,WSDL version 420,2013-01-17 09:53:00,
2013-01-17 02:58:00,26.0,6.7,30.09,ESE,113,1.3,2.7,39,0.00,,,0.00,WSDL version 420,2013-01-17 09:58:00,
2013-01-17 03:03:00,25.4,6.2,30.09,ESE,113,2.2,2.7,39,0.00,,,0.00,WSDL version 420,2013-01-17 10:03:00,
2013-01-17 03:08:00,25.3,6.3,30.09,ESE,113,0.6,2.7,40,0.00,,,0.00,WSDL version 420,2013-01-17 10:08:00,
2013-01-17 03:13:00,-999.0,-99.9,30.09,East,90,2.5,2.9,-999,0.00,,,0.00,WSDL version 420,2013-01-17 10:13:00,
2013-01-17 03:18:00,-999.0,-99.9,30.09,North,-999,-999.0,-999.0,-999,0.00,,,0.00,WSDL version 420,2013-01-17 10:18:00,
2013-01-17 03:28:00,-999.0,-99.9,30.09,East,90,2.1,3.4,-999,0.00,,,0.00,WSDL version 420,2013-01-17 10:28:00,
2013-01-17 03:33:00,25.3,7.4,30.09,East,90,2.0,2.7,42,0.00,,,0.00,WSDL version 420,2013-01-17 10:33:00,
2013-01-17 03:38:00,25.7,7.7,30.09,East,90,1.6,2.5,42,0.00,,,0.00,WSDL version 420,2013-01-17 10:38:00,
2013-01-17 03:43:00,25.7,7.9,30.06,ENE,68,2.7,2.7,42,0.00,,,0.00,WSDL version 420,2013-01-17 10:43:00,
2013-01-17 03:48:00,-999.0,-99.9,30.06,ENE,68,1.2,2.7,-999,0.00,,,0.00,WSDL version 420,2013-01-17 10:48:00,
2013-01-17 03:53:00,-999.0,-99.9,30.06,East,101,2.2,2.9,-999,0.00,,,0.00,WSDL version 420,2013-01-17 10:53:00,
2013-01-17 03:58:00,-999.0,-99.9,30.09,North,0,0.0,2.9,-999,0.00,,,0.00,WSDL version 420,2013-01-17 10:58:00,
2013-01-17 04:03:00,-999.0,-99.9,30.09,SE,135,0.0,2.5,-999,0.00,,,0.00,WSDL version 420,2013-01-17 11:03:00,
2013-01-17 04:08:00,-999.0,-99.9,30.09,North,-999,-999.0,-999.0,-999,0.00,,,0.00,WSDL version 420,2013-01-17 11:08:00,
2013-01-17 04:13:00,-999.0,-99.9,30.06,East,98,0.0,2.7,-999,0.00,,,0.00,WSDL version 420,2013-01-17 11:13:00,
2013-01-17 04:18:00,-999.0,-99.9,30.06,ESE,113,2.0,3.6,-999,0.00,,,0.00,WSDL version 420,2013-01-17 11:18:00,
2013-01-17 04:23:00,-999.0,-99.9,30.06,ESE,113,0.6,3.6,-999,0.00,,,0.00,WSDL version 420,2013-01-17 11:23:00,
2013-01-17 04:28:00,23.8,6.1,30.06,ESE,113,1.5,2.5,42,0.00,,,0.00,WSDL version 420,2013-01-17 11:28:00,
2013-01-17 04:33:00,-999.0,-99.9,30.06,ESE,113,2.0,2.5,-999,0.00,,,0.00,WSDL version 420,2013-01-17 11:33:00,
2013-01-17 04:38:00,-999.0,-99.9,30.06,ESE,113,1.3,2.9,-999,0.00,,,0.00,WSDL version 420,2013-01-17 11:38:00,
2013-01-17 04:43:00,23.5,5.9,30.06,ESE,113,1.2,2.9,42,0.00,,,0.00,WSDL version 420,2013-01-17 11:43:00,
2013-01-17 04:48:00,-999.0,-99.9,30.06,ESE,113,0.0,2.2,-999,0.00,,,0.00,WSDL version 420,2013-01-17 11:48:00,
2013-01-17 04:53:00,-999.0,-99.9,30.06,ESE,113,0.7,2.2,-999,0.00,,,0.00,WSDL version 420,2013-01-17 11:53:00,
2013-01-17 04:58:00,-999.0,-99.9,30.06,ESE,113,0.0,1.1,-999,0.00,,,0.00,WSDL version 420,2013-01-17 11:58:00,
2013-01-17 05:03:00,-999.0,-99.9,30.06,ESE,113,1.6,1.6,-999,0.00,,,0.00,WSDL version 420,2013-01-17 12:03:00,
2013-01-17 05:08:00,-999.0,-99.9,30.06,ESE,113,1.6,1.6,-999,0.00,,,0.00,WSDL version 420,2013-01-17 12:08:00,
2013-01-17 05:13:00,-999.0,-99.9,30.06,ESE,113,1.0,1.6,-999,0.00,,,0.00,WSDL version 420,2013-01-17 12:13:00,
2013-01-17 05:18:00,24.3,7.0,30.06,SSE,165,2.0,3.8,43,0.00,,,0.00,WSDL version 420,2013-01-17 12:18:00,
2013-01-17 05:28:00,23.7,6.5,30.06,ESE,113,0.0,3.1,43,0.00,,,0.00,WSDL version 420,2013-01-17 12:28:00,
2013-01-17 05:33:00,-999.0,-99.9,30.06,ESE,113,1.6,2.0,-999,0.00,,,0.00,WSDL version 420,2013-01-17 12:33:00,
2013-01-17 05:38:00,-999.0,-99.9,30.06,North,-999,-999.0,-999.0,-999,0.00,,,0.00,WSDL version 420,2013-01-17 12:38:00,
2013-01-17 05:43:00,-999.0,-99.9,30.09,East,90,0.9,1.6,-999,0.00,,,0.00,WSDL version 420,2013-01-17 12:43:00,
2013-01-17 05:48:00,-999.0,-99.9,30.09,East,90,0.0,1.3,-999,0.00,,,0.00,WSDL version 420,2013-01-17 12:48:00,
2013-01-17 05:53:00,-999.0,-99.9,30.09,East,90,1.7,2.9,-999,0.00,,,0.00,WSDL version 420,2013-01-17 12:53:00,
2013-01-17 05:58:00,-999.0,-99.9,30.09,North,-999,-999.0,-999.0,-999,0.00,,,0.00,WSDL version 420,2013-01-17 12:58:00,
2013-01-17 06:03:00,23.6,6.4,30.09,ENE,68,0.0,3.1,43,0.00,,,0.00,WSDL version 420,2013-01-17 13:03:00,
2013-01-17 06:08:00,23.5,6.4,30.09,ENE,68,1.3,2.9,43,0.00,,,0.00,WSDL version 420,2013-01-17 13:08:00,
2013-01-17 06:13:00,23.5,6.4,30.09,SE,128,0.9,3.1,43,0.00,,,0.00,WSDL version 420,2013-01-17 13:13:00,
2013-01-17 06:18:00,23.5,6.3,30.09,North,0,0.0,3.1,43,0.00,,,0.00,WSDL version 420,2013-01-17 13:18:00,
2013-01-17 06:23:00,-999.0,-99.9,30.09,ESE,113,2.2,2.9,-999,0.00,,,0.00,WSDL version 420,2013-01-17 13:23:00,
2013-01-17 06:28:00,23.3,6.3,30.09,ESE,113,1.3,2.9,44,0.00,,,0.00,WSDL version 420,2013-01-17 13:28:00,
2013-01-17 06:33:00,23.5,6.8,30.09,ESE,113,1.3,2.5,44,0.00,,,0.00,WSDL version 420,2013-01-17 13:33:00,
2013-01-17 06:38:00,-999.0,-99.9,30.09,NE,51,2.1,2.5,-999,0.00,,,0.00,WSDL version 420,2013-01-17 13:38:00,
2013-01-17 06:43:00,23.5,6.6,30.09,SSE,158,2.1,3.4,44,0.00,,,0.00,WSDL version 420,2013-01-17 13:43:00,
2013-01-17 06:48:00,23.6,6.8,30.09,ENE,68,0.3,3.4,44,0.00,,,0.00,WSDL version 420,2013-01-17 13:48:00,
2013-01-17 06:53:00,23.8,7.1,30.09,ENE,68,3.1,3.4,44,0.00,,,0.00,WSDL version 420,2013-01-17 13:53:00,
2013-01-17 06:58:00,23.8,7.0,30.12,ESE,117,2.6,3.8,44,0.00,,,0.00,WSDL version 420,2013-01-17 13:58:00,
2013-01-17 07:03:00,23.5,6.8,30.12,WSW,248,1.6,3.8,44,0.00,,,0.00,WSDL version 420,2013-01-17 14:03:00,
2013-01-17 07:08:00,23.3,6.1,30.12,South,180,0.0,2.0,43,0.00,,,0.00,WSDL version 420,2013-01-17 14:08:00,
2013-01-17 07:13:00,23.0,6.3,30.12,SSE,158,0.4,2.0,44,0.00,,,0.00,WSDL version 420,2013-01-17 14:13:00,
2013-01-17 07:18:00,23.2,6.5,30.12,East,90,2.2,2.7,44,0.00,,,0.00,WSDL version 420,2013-01-17 14:18:00,
2013-01-17 07:23:00,-999.0,-99.9,30.12,ESE,108,0.9,2.7,-999,0.00,,,0.00,WSDL version 420,2013-01-17 14:23:00,
2013-01-17 07:28:00,23.4,6.6,30.12,East,90,0.4,2.0,44,0.00,,,0.00,WSDL version 420,2013-01-17 14:28:00,
2013-01-17 07:33:00,23.3,6.6,30.12,ENE,71,1.1,2.0,44,0.00,,,0.00,WSDL version 420,2013-01-17 14:33:00,
2013-01-17 07:38:00,23.2,6.5,30.12,ENE,68,1.3,1.6,44,0.00,,,0.00,WSDL version 420,2013-01-17 14:38:00,
2013-01-17 07:43:00,23.2,6.5,30.12,ENE,68,2.0,2.2,44,0.00,,,0.00,WSDL version 420,2013-01-17 14:43:00,
2013-01-17 07:48:00,23.2,6.5,30.12,ENE,68,1.6,2.2,44,0.00,,,0.00,WSDL version 420,2013-01-17 14:48:00,
2013-01-17 07:53:00,23.4,6.6,30.12,ENE,68,0.9,1.6,44,0.00,,,0.00,WSDL version 420,2013-01-17 14:53:00,
2013-01-17 07:58:00,23.2,6.5,30.15,ENE,68,1.8,2.7,44,0.00,,,0.00,WSDL version 420,2013-01-17 14:58:00,
2013-01-17 08:03:00,23.2,6.5,30.15,North,-999,-999.0,-999.0,44,0.00,,,0.00,WSDL version 420,2013-01-17 15:03:00,
2013-01-17 08:08:00,23.8,7.0,30.15,ENE,68,1.1,1.6,44,0.00,,,0.00,WSDL version 420,2013-01-17 15:08:00,
2013-01-17 08:13:00,24.3,7.5,30.12,ENE,68,1.1,1.6,44,0.00,,,0.00,WSDL version 420,2013-01-17 15:13:00,
2013-01-17 08:18:00,24.8,7.9,30.12,ENE,68,0.0,2.5,44,0.00,,,0.00,WSDL version 420,2013-01-17 15:18:00,
2013-01-17 08:23:00,25.5,8.6,30.12,ENE,68,0.0,2.5,44,0.00,,,0.00,WSDL version 420,2013-01-17 15:23:00,
2013-01-17 08:28:00,26.2,9.3,30.12,ENE,68,0.0,1.3,44,0.00,,,0.00,WSDL version 420,2013-01-17 15:28:00,
2013-01-17 08:38:00,27.7,10.7,30.12,WSW,248,0.7,2.7,44,0.00,,,0.00,WSDL version 420,2013-01-17 15:38:00,
2013-01-17 08:43:00,28.3,11.1,30.15,WSW,248,0.0,2.2,43,0.00,,,0.00,WSDL version 420,2013-01-17 15:43:00,
2013-01-17 08:53:00,29.7,12.1,30.15,North,360,1.1,2.0,43,0.00,,,0.00,WSDL version 420,2013-01-17 15:53:00,
2013-01-17 08:58:00,30.4,12.5,30.15,WSW,257,1.3,2.5,42,0.00,,,0.00,WSDL version 420,2013-01-17 15:58:00,
2013-01-17 09:03:00,31.1,12.9,30.15,West,270,1.5,2.9,42,0.00,,,0.00,WSDL version 420,2013-01-17 16:03:00,
2013-01-17 09:08:00,32.0,13.0,30.15,WNW,293,0.0,2.9,42,0.00,,,0.00,WSDL version 420,2013-01-17 16:08:00,
2013-01-17 09:13:00,32.7,11.8,30.15,WSW,248,0.9,2.5,41,0.00,,,0.00,WSDL version 420,2013-01-17 16:13:00,
2013-01-17 09:18:00,33.3,12.2,30.15,North,-999,-999.0,-999.0,41,0.00,,,0.00,WSDL version 420,2013-01-17 16:18:00,
2013-01-17 09:23:00,33.9,12.5,30.15,NNW,338,1.6,2.9,40,0.00,,,0.00,WSDL version 420,2013-01-17 16:23:00,
2013-01-17 09:28:00,34.4,12.6,30.15,NNW,338,1.1,2.0,40,0.00,,,0.00,WSDL version 420,2013-01-17 16:28:00,
2013-01-17 09:33:00,35.1,13.2,30.15,North,-999,-999.0,-999.0,40,0.00,,,0.00,WSDL version 420,2013-01-17 16:33:00,
2013-01-17 09:38:00,35.6,13.3,30.15,WSW,248,2.2,2.5,39,0.00,,,0.00,WSDL version 420,2013-01-17 16:38:00,
2013-01-17 09:43:00,36.1,13.5,30.15,North,360,2.2,2.7,39,0.00,,,0.00,WSDL version 420,2013-01-17 16:43:00,
2013-01-17 09:48:00,36.5,13.6,30.15,North,-999,-999.0,-999.0,38,0.00,,,0.00,WSDL version 420,2013-01-17 16:48:00,
2013-01-17 09:53:00,37.0,13.9,30.15,North,0,0.0,2.2,38,0.00,,,0.00,WSDL version 420,2013-01-17 16:53:00,
2013-01-17 09:58:00,37.5,13.8,30.15,WSW,248,2.6,2.7,37,0.00,,,0.00,WSDL version 420,2013-01-17 16:58:00,
2013-01-17 10:03:00,37.9,13.7,30.15,NW,308,1.4,2.7,36,0.00,,,0.00,WSDL version 420,2013-01-17 17:03:00,
2013-01-17 10:08:00,38.5,13.8,30.15,WSW,248,1.5,2.2,36,0.00,,,0.00,WSDL version 420,2013-01-17 17:08:00,
2013-01-17 10:13:00,39.0,14.1,30.15,WSW,248,1.6,2.2,35,0.00,,,0.00,WSDL version 420,2013-01-17 17:13:00,
2013-01-17 10:18:00,39.6,14.2,30.15,North,-999,-999.0,-999.0,35,0.00,,,0.00,WSDL version 420,2013-01-17 17:18:00,
2013-01-17 10:23:00,39.9,14.0,30.15,North,-999,-999.0,-999.0,34,0.00,,,0.00,WSDL version 420,2013-01-17 17:23:00,
2013-01-17 10:28:00,40.3,14.0,30.15,WSW,248,2.5,3.1,34,0.00,,,0.00,WSDL version 420,2013-01-17 17:28:00,
2013-01-17 10:33:00,40.6,13.9,30.15,North,-999,-999.0,-999.0,33,0.00,,,0.00,WSDL version 420,2013-01-17 17:33:00,
2013-01-17 10:38:00,41.0,14.1,30.15,WSW,248,3.2,4.0,33,0.00,,,0.00,WSDL version 420,2013-01-17 17:38:00,
2013-01-17 10:43:00,41.6,14.2,30.15,SW,225,2.2,3.8,32,0.00,,,0.00,WSDL version 420,2013-01-17 17:43:00,
2013-01-17 10:48:00,42.0,14.3,30.15,SW,225,2.2,2.5,32,0.00,,,0.00,WSDL version 420,2013-01-17 17:48:00,
2013-01-17 10:53:00,42.3,14.6,30.15,North,-999,-999.0,-999.0,32,0.00,,,0.00,WSDL version 420,2013-01-17 17:53:00,
2013-01-17 10:58:00,42.8,14.5,30.15,North,-999,-999.0,-999.0,31,0.00,,,0.00,WSDL version 420,2013-01-17 17:58:00,
2013-01-17 11:03:00,43.3,14.7,30.15,WSW,248,4.3,4.9,31,0.00,,,0.00,WSDL version 420,2013-01-17 18:03:00,
2013-01-17 11:08:00,44.1,15.4,30.15,SW,225,3.6,4.9,31,0.00,,,0.00,WSDL version 420,2013-01-17 18:08:00,
2013-01-17 11:13:00,44.6,15.2,30.15,WSW,240,4.5,5.4,30,0.00,,,0.00,WSDL version 420,2013-01-17 18:13:00,
2013-01-17 11:18:00,44.8,15.1,30.15,SW,236,4.3,5.4,29,0.00,,,0.00,WSDL version 420,2013-01-17 18:18:00,
2013-01-17 11:23:00,45.2,14.8,30.15,North,-999,-999.0,-999.0,29,0.00,,,0.00,WSDL version 420,2013-01-17 18:23:00,
2013-01-17 11:28:00,45.5,15.1,30.12,WSW,248,3.8,4.9,29,0.00,,,0.00,WSDL version 420,2013-01-17 18:28:00,
2013-01-17 11:33:00,46.2,15.6,30.12,SW,225,3.1,4.3,28,0.00,,,0.00,WSDL version 420,2013-01-17 18:33:00,
2013-01-17 11:38:00,46.6,15.2,30.12,WSW,248,3.4,4.3,28,0.00,,,0.00,WSDL version 420,2013-01-17 18:38:00,
2013-01-17 11:43:00,46.8,15.4,30.12,SW,225,3.4,4.3,28,0.00,,,0.00,WSDL version 420,2013-01-17 18:43:00,
2013-01-17 11:48:00,46.9,15.5,30.12,North,-999,-999.0,-999.0,28,0.00,,,0.00,WSDL version 420,2013-01-17 18:48:00,
2013-01-17 11:53:00,47.2,15.8,30.12,North,-999,-999.0,-999.0,28,0.00,,,0.00,WSDL version 420,2013-01-17 18:53:00,
2013-01-17 11:58:00,47.5,15.6,30.12,WSW,248,4.5,6.3,27,0.00,,,0.00,WSDL version 420,2013-01-17 18:58:00,
2013-01-17 12:03:00,48.0,15.6,30.12,WSW,248,5.6,6.3,27,0.00,,,0.00,WSDL version 420,2013-01-17 19:03:00,
2013-01-17 12:08:00,48.3,15.9,30.12,North,-999,-999.0,-999.0,27,0.00,,,0.00,WSDL version 420,2013-01-17 19:08:00,
2013-01-17 12:13:00,48.6,16.2,30.12,SW,225,5.6,6.3,27,0.00,,,0.00,WSDL version 420,2013-01-17 19:13:00,
2013-01-17 12:18:00,48.8,16.3,30.12,WSW,248,4.8,6.3,27,0.00,,,0.00,WSDL version 420,2013-01-17 19:18:00,
2013-01-17 12:23:00,49.0,16.5,30.12,WSW,248,5.6,6.0,27,0.00,,,0.00,WSDL version 420,2013-01-17 19:23:00,
2013-01-17 12:28:00,49.2,16.4,30.12,North,-999,-999.0,-999.0,27,0.00,,,0.00,WSDL version 420,2013-01-17 19:28:00,
2013-01-17 12:33:00,49.4,16.2,30.12,SW,225,5.4,6.3,26,0.00,,,0.00,WSDL version 420,2013-01-17 19:33:00,
2013-01-17 12:38:00,49.8,16.3,30.12,WNW,293,2.8,4.7,26,0.00,,,0.00,WSDL version 420,2013-01-17 19:38:00,
2013-01-17 12:43:00,49.8,16.3,30.09,North,-999,-999.0,-999.0,26,0.00,,,0.00,WSDL version 420,2013-01-17 19:43:00,
2013-01-17 12:48:00,49.9,16.3,30.09,WSW,248,5.8,7.2,26,0.00,,,0.00,WSDL version 420,2013-01-17 19:48:00,
2013-01-17 12:53:00,50.0,16.5,30.09,North,0,0.0,7.2,26,0.00,,,0.00,WSDL version 420,2013-01-17 19:53:00,
2013-01-17 12:58:00,50.2,16.3,30.09,North,-999,-999.0,-999.0,26,0.00,,,0.00,WSDL version 420,2013-01-17 19:58:00,
2013-01-17 13:03:00,50.2,15.4,30.09,North,360,2.5,4.9,24,0.00,,,0.00,WSDL version 420,2013-01-17 20:03:00,
2013-01-17 13:08:00,50.0,14.7,30.09,North,349,2.2,4.9,24,0.00,,,0.00,WSDL version 420,2013-01-17 20:08:00,
2013-01-17 13:13:00,50.0,14.6,30.09,North,-999,-999.0,-999.0,24,0.00,,,0.00,WSDL version 420,2013-01-17 20:13:00,
2013-01-17 13:18:00,50.2,14.8,30.09,North,-999,-999.0,-999.0,24,0.00,,,0.00,WSDL version 420,2013-01-17 20:18:00,
2013-01-17 13:23:00,50.4,14.9,30.09,North,-999,-999.0,-999.0,24,0.00,,,0.00,WSDL version 420,2013-01-17 20:23:00,
2013-01-17 13:28:00,50.6,15.1,30.09,North,-999,-999.0,-999.0,24,0.00,,,0.00,WSDL version 420,2013-01-17 20:28:00,
2013-01-17 13:33:00,50.6,15.1,30.09,North,-999,-999.0,-999.0,24,0.00,,,0.00,WSDL version 420,2013-01-17 20:33:00,
2013-01-17 13:38:00,50.7,15.2,30.09,North,-999,-999.0,-999.0,24,0.00,,,0.00,WSDL version 420,2013-01-17 20:38:00,
2013-01-17 13:43:00,51.2,15.6,30.09,West,270,2.9,2.9,24,0.00,,,0.00,WSDL version 420,2013-01-17 20:43:00,
2013-01-17 13:48:00,51.1,15.6,30.09,North,-999,-999.0,-999.0,24,0.00,,,0.00,WSDL version 420,2013-01-17 20:48:00,
2013-01-17 13:53:00,51.0,15.5,30.09,North,-999,-999.0,-999.0,24,0.00,,,0.00,WSDL version 420,2013-01-17 20:53:00,
2013-01-17 13:58:00,51.1,15.6,30.09,North,0,0.0,4.0,24,0.00,,,0.00,WSDL version 420,2013-01-17 20:58:00,
2013-01-17 14:03:00,51.3,15.7,30.09,SW,236,3.5,4.0,24,0.00,,,0.00,WSDL version 420,2013-01-17 21:03:00,
2013-01-17 14:08:00,51.5,16.0,30.09,North,-999,-999.0,-999.0,24,0.00,,,0.00,WSDL version 420,2013-01-17 21:08:00,
2013-01-17 14:13:00,51.6,14.4,30.09,North,-999,-999.0,-999.0,21,0.00,,,0.00,WSDL version 420,2013-01-17 21:13:00,
2013-01-17 14:18:00,51.4,12.8,30.09,North,-999,-999.0,-999.0,21,0.00,,,0.00,WSDL version 420,2013-01-17 21:18:00,
2013-01-17 14:23:00,51.4,13.4,30.09,NW,315,2.3,3.1,21,0.00,,,0.00,WSDL version 420,2013-01-17 21:23:00,
2013-01-17 14:28:00,51.4,12.8,30.09,North,-999,-999.0,-999.0,21,0.00,,,0.00,WSDL version 420,2013-01-17 21:28:00,
2013-01-17 14:33:00,51.5,12.9,30.09,NNE,23,1.6,2.9,21,0.00,,,0.00,WSDL version 420,2013-01-17 21:33:00,
2013-01-17 14:38:00,51.6,13.0,30.09,North,-999,-999.0,-999.0,21,0.00,,,0.00,WSDL version 420,2013-01-17 21:38:00,
2013-01-17 14:43:00,51.6,13.0,30.06,WNW,293,2.0,2.7,21,0.00,,,0.00,WSDL version 420,2013-01-17 21:43:00,
2013-01-17 14:48:00,51.8,13.1,30.06,NNW,338,2.0,3.1,21,0.00,,,0.00,WSDL version 420,2013-01-17 21:48:00,
2013-01-17 14:53:00,51.8,13.1,30.06,NE,56,2.5,3.4,21,0.00,,,0.00,WSDL version 420,2013-01-17 21:53:00,
2013-01-17 14:58:00,51.8,13.1,30.09,West,259,2.2,3.4,21,0.00,,,0.00,WSDL version 420,2013-01-17 21:58:00,
2013-01-17 15:03:00,51.8,13.1,30.09,WNW,293,2.7,3.1,21,0.00,,,0.00,WSDL version 420,2013-01-17 22:03:00,
2013-01-17 15:08:00,51.9,13.2,30.09,NNW,338,2.2,3.1,21,0.00,,,0.00,WSDL version 420,2013-01-17 22:08:00,
2013-01-17 15:13:00,51.9,13.2,30.06,NNW,338,2.9,3.1,21,0.00,,,0.00,WSDL version 420,2013-01-17 22:13:00,
2013-01-17 15:23:00,52.0,13.3,30.06,NW,304,2.0,3.1,21,0.00,,,0.00,WSDL version 420,2013-01-17 22:23:00,
2013-01-17 15:28:00,52.0,13.3,30.06,North,-999,-999.0,-999.0,21,0.00,,,0.00,WSDL version 420,2013-01-17 22:28:00,
2013-01-17 15:33:00,52.0,13.3,30.06,North,-999,-999.0,-999.0,21,0.00,,,0.00,WSDL version 420,2013-01-17 22:33:00,
2013-01-17 15:38:00,52.1,13.3,30.06,North,-999,-999.0,-999.0,21,0.00,,,0.00,WSDL version 420,2013-01-17 22:38:00,
2013-01-17 15:43:00,52.0,13.3,30.06,North,-999,-999.0,-999.0,21,0.00,,,0.00,WSDL version 420,2013-01-17 22:43:00,
2013-01-17 15:48:00,52.0,13.3,30.06,NNW,338,2.5,2.9,21,0.00,,,0.00,WSDL version 420,2013-01-17 22:48:00,
2013-01-17 15:53:00,52.0,13.3,30.06,North,-999,-999.0,-999.0,21,0.00,,,0.00,WSDL version 420,2013-01-17 22:53:00,
2013-01-17 15:58:00,52.0,13.3,30.06,WSW,248,1.6,2.0,21,0.00,,,0.00,WSDL version 420,2013-01-17 22:58:00,
2013-01-17 16:03:00,52.2,13.4,30.06,North,-999,-999.0,-999.0,21,0.00,,,0.00,WSDL version 420,2013-01-17 23:03:00,
2013-01-17 16:08:00,52.3,13.5,30.06,North,-999,-999.0,-999.0,21,0.00,,,0.00,WSDL version 420,2013-01-17 23:08:00,
2013-01-17 16:13:00,52.2,13.4,30.06,North,-999,-999.0,-999.0,21,0.00,,,0.00,WSDL version 420,2013-01-17 23:13:00,
2013-01-17 16:18:00,52.2,13.4,30.06,North,0,0.0,2.5,21,0.00,,,0.00,WSDL version 420,2013-01-17 23:18:00,
2013-01-17 16:23:00,52.1,13.4,30.06,NNW,338,2.2,2.5,21,0.00,,,0.00,WSDL version 420,2013-01-17 23:23:00,
2013-01-17 16:28:00,52.0,13.2,30.09,NNW,338,2.0,2.5,21,0.00,,,0.00,WSDL version 420,2013-01-17 23:28:00,
2013-01-17 16:33:00,51.8,13.1,30.09,North,-999,-999.0,-999.0,21,0.00,,,0.00,WSDL version 420,2013-01-17 23:33:00,
2013-01-17 16:38:00,51.6,13.0,30.09,NNW,338,2.0,2.7,21,0.00,,,0.00,WSDL version 420,2013-01-17 23:38:00,
2013-01-17 16:43:00,51.6,13.0,30.06,NNW,338,2.5,2.5,21,0.00,,,0.00,WSDL version 420,2013-01-17 23:43:00,
2013-01-17 16:48:00,51.6,13.0,30.06,NNW,338,2.5,3.1,21,0.00,,,0.00,WSDL version 420,2013-01-17 23:48:00,
2013-01-17 16:53:00,51.5,12.8,30.06,North,-999,-999.0,-999.0,21,0.00,,,0.00,WSDL version 420,2013-01-17 23:53:00,
2013-01-17 16:58:00,51.3,12.7,30.09,North,360,2.0,2.5,21,0.00,,,0.00,WSDL version 420,2013-01-17 23:58:00,
2013-01-17 17:03:00,51.0,12.4,30.09,NW,315,1.3,2.5,21,0.00,,,0.00,WSDL version 420,2013-01-18 00:03:00,
2013-01-17 17:08:00,50.7,12.2,30.09,North,349,1.5,2.0,21,0.00,,,0.00,WSDL version 420,2013-01-18 00:08:00,
2013-01-17 17:13:00,50.4,11.9,30.09,North,-999,-999.0,-999.0,21,0.00,,,0.00,WSDL version 420,2013-01-18 00:13:00,
2013-01-17 17:18:00,50.1,11.7,30.09,North,-999,-999.0,-999.0,21,0.00,,,0.00,WSDL version 420,2013-01-18 00:18:00,
2013-01-17 17:23:00,49.8,11.4,30.09,NNW,338,1.6,2.0,21,0.00,,,0.00,WSDL version 420,2013-01-18 00:23:00,
2013-01-17 17:33:00,49.0,10.8,30.09,North,-999,-999.0,-999.0,21,0.00,,,0.00,WSDL version 420,2013-01-18 00:33:00,
2013-01-17 17:38:00,48.9,10.6,30.09,North,-999,-999.0,-999.0,21,0.00,,,0.00,WSDL version 420,2013-01-18 00:38:00,
2013-01-17 17:43:00,48.5,10.3,30.09,North,-999,-999.0,-999.0,21,0.00,,,0.00,WSDL version 420,2013-01-18 00:43:00,
2013-01-17 17:48:00,48.0,10.7,30.09,North,-999,-999.0,-999.0,22,0.00,,,0.00,WSDL version 420,2013-01-18 00:48:00,
2013-01-17 17:53:00,47.5,10.6,30.09,East,90,3.4,3.4,22,0.00,,,0.00,WSDL version 420,2013-01-18 00:53:00,
2013-01-17 17:58:00,47.2,10.3,30.09,North,-999,-999.0,-999.0,22,0.00,,,0.00,WSDL version 420,2013-01-18 00:58:00,
2013-01-17 18:03:00,46.6,9.8,30.09,North,0,0.0,4.9,22,0.00,,,0.00,WSDL version 420,2013-01-18 01:03:00,
2013-01-17 18:08:00,46.0,9.3,30.09,East,101,4.3,5.6,22,0.00,,,0.00,WSDL version 420,2013-01-18 01:08:00,
2013-01-17 18:13:00,45.3,8.7,30.09,East,90,3.8,5.6,22,0.00,,,0.00,WSDL version 420,2013-01-18 01:13:00,
2013-01-17 18:18:00,45.0,8.4,30.09,East,90,5.6,6.0,22,0.00,,,0.00,WSDL version 420,2013-01-18 01:18:00,
2013-01-17 18:23:00,44.6,8.3,30.09,North,0,0.0,6.0,23,0.00,,,0.00,WSDL version 420,2013-01-18 01:23:00,
2013-01-17 18:28:00,44.3,8.9,30.09,East,79,5.9,6.3,23,0.00,,,0.00,WSDL version 420,2013-01-18 01:28:00,
2013-01-17 18:33:00,44.1,8.6,30.09,North,-999,-999.0,-999.0,23,0.00,,,0.00,WSDL version 420,2013-01-18 01:33:00,
2013-01-17 18:38:00,43.8,8.4,30.09,East,79,4.7,5.6,23,0.00,,,0.00,WSDL version 420,2013-01-18 01:38:00,
2013-01-17 18:43:00,43.5,8.1,30.09,East,83,4.5,6.0,23,0.00,,,0.00,WSDL version 420,2013-01-18 01:43:00,
2013-01-17 18:48:00,43.2,7.9,30.09,ENE,68,4.3,6.0,23,0.00,,,0.00,WSDL version 420,2013-01-18 01:48:00,
2013-01-17 18:53:00,43.0,7.7,30.09,East,79,4.1,5.6,23,0.00,,,0.00,WSDL version 420,2013-01-18 01:53:00,
2013-01-17 18:58:00,42.9,7.6,30.09,ENE,68,4.3,5.8,23,0.00,,,0.00,WSDL version 420,2013-01-18 01:58:00,
2013-01-17 19:03:00,42.8,7.6,30.09,North,0,0.0,5.8,23,0.00,,,0.00,WSDL version 420,2013-01-18 02:03:00,
2013-01-17 19:08:00,42.8,7.6,30.09,ENE,68,5.6,5.6,23,0.00,,,0.00,WSDL version 420,2013-01-18 02:08:00,
2013-01-17 19:13:00,42.8,7.6,30.09,East,83,4.9,6.3,23,0.00,,,0.00,WSDL version 420,2013-01-18 02:13:00,
2013-01-17 19:18:00,42.5,7.3,30.09,ENE,68,3.8,6.5,23,0.00,,,0.00,WSDL version 420,2013-01-18 02:18:00,
2013-01-17 19:23:00,42.1,6.9,30.09,East,98,5.6,6.5,23,0.00,,,0.00,WSDL version 420,2013-01-18 02:23:00,
2013-01-17 19:28:00,41.5,6.5,30.09,East,90,5.8,7.2,23,0.00,,,0.00,WSDL version 420,2013-01-18 02:28:00,
2013-01-17 19:33:00,41.5,6.5,30.09,East,79,6.3,7.2,23,0.00,,,0.00,WSDL version 420,2013-01-18 02:33:00,
2013-01-17 19:38:00,41.5,6.5,30.09,ENE,68,5.0,8.1,23,0.00,,,0.00,WSDL version 420,2013-01-18 02:38:00,
2013-01-17 19:43:00,41.5,6.5,30.12,East,90,4.7,8.1,23,0.00,,,0.00,WSDL version 420,2013-01-18 02:43:00,
2013-01-17 19:48:00,41.4,6.3,30.12,East,84,6.0,8.1,23,0.00,,,0.00,WSDL version 420,2013-01-18 02:48:00,
2013-01-17 19:53:00,41.2,6.2,30.12,East,90,4.9,8.1,23,0.00,,,0.00,WSDL version 420,2013-01-18 02:53:00,
2013-01-17 19:58:00,41.1,8.1,30.09,North,0,0.0,5.8,26,0.00,,,0.00,WSDL version 420,2013-01-18 02:58:00,
2013-01-17 20:03:00,41.0,8.7,30.09,East,79,4.3,4.9,26,0.00,,,0.00,WSDL version 420,2013-01-18 03:03:00,
2013-01-17 20:13:00,41.2,8.9,30.09,East,90,5.7,7.4,26,0.00,,,0.00,WSDL version 420,2013-01-18 03:13:00,
2013-01-17 20:18:00,41.2,8.9,30.09,North,-999,-999.0,-999.0,26,0.00,,,0.00,WSDL version 420,2013-01-18 03:18:00,
2013-01-17 20:23:00,41.2,8.9,30.09,ENE,73,4.7,6.3,26,0.00,,,0.00,WSDL version 420,2013-01-18 03:23:00,
2013-01-17 20:28:00,41.1,8.8,30.12,East,90,4.7,6.3,26,0.00,,,0.00,WSDL version 420,2013-01-18 03:28:00,
2013-01-17 20:33:00,-999.0,-99.9,30.12,ESE,113,3.6,6.0,-999,0.00,,,0.00,WSDL version 420,2013-01-18 03:33:00,
2013-01-17 20:38:00,40.7,8.5,30.12,North,-999,-999.0,-999.0,26,0.00,,,0.00,WSDL version 420,2013-01-18 03:38:00,
2013-01-17 20:43:00,40.7,8.5,30.09,East,90,4.7,5.8,26,0.00,,,0.00,WSDL version 420,2013-01-18 03:43:00,
2013-01-17 20:48:00,40.7,8.5,30.09,East,83,4.2,5.4,26,0.00,,,0.00,WSDL version 420,2013-01-18 03:48:00,
2013-01-17 20:53:00,40.6,8.4,30.09,East,79,4.5,5.4,26,0.00,,,0.00,WSDL version 420,2013-01-18 03:53:00,
2013-01-17 20:58:00,40.4,8.2,30.12,North,360,3.8,5.4,26,0.00,,,0.00,WSDL version 420,2013-01-18 03:58:00,
2013-01-17 21:08:00,39.3,7.3,30.12,North,356,4.0,5.6,26,0.00,,,0.00,WSDL version 420,2013-01-18 04:08:00,
2013-01-17 21:13:00,39.2,7.2,30.12,ENE,68,2.8,5.6,26,0.00,,,0.00,WSDL version 420,2013-01-18 04:13:00,
2013-01-17 21:18:00,39.5,7.5,30.12,North,360,3.6,4.9,26,0.00,,,0.00,WSDL version 420,2013-01-18 04:18:00,
2013-01-17 21:23:00,39.7,7.6,30.12,ENE,68,2.8,4.9,26,0.00,,,0.00,WSDL version 420,2013-01-18 04:23:00,
2013-01-17 21:28:00,39.7,7.6,30.12,NE,45,2.7,3.6,26,0.00,,,0.00,WSDL version 420,2013-01-18 04:28:00,
2013-01-17 21:33:00,-999.0,-99.9,30.12,NE,45,0.4,2.9,-999,0.00,,,0.00,WSDL version 420,2013-01-18 04:33:00,
2013-01-17 21:38:00,39.1,7.1,30.12,NE,45,1.0,2.7,26,0.00,,,0.00,WSDL version 420,2013-01-18 04:38:00,
2013-01-17 21:43:00,38.8,6.8,30.12,NE,45,0.9,2.7,26,0.00,,,0.00,WSDL version 420,2013-01-18 04:43:00,
2013-01-17 21:48:00,38.4,6.5,30.12,NE,45,1.3,2.5,26,0.00,,,0.00,WSDL version 420,2013-01-18 04:48:00,
2013-01-17 21:53:00,-999.0,-99.9,30.12,NE,45,0.0,1.6,-999,0.00,,,0.00,WSDL version 420,2013-01-18 04:53:00,
2013-01-17 22:03:00,-999.0,-99.9,30.12,NE,45,0.7,2.2,-999,0.00,,,0.00,WSDL version 420,2013-01-18 05:03:00,
2013-01-17 22:08:00,-999.0,-99.9,30.12,NE,45,0.0,2.2,-999,0.00,,,0.00,WSDL version 420,2013-01-18 05:08:00,
2013-01-17 22:13:00,37.6,5.8,30.12,ENE,68,0.8,3.1,26,0.00,,,0.00,WSDL version 420,2013-01-18 05:13:00,
2013-01-17 22:18:00,37.2,5.8,30.12,ENE,68,1.6,3.1,27,0.00,,,0.00,WSDL version 420,2013-01-18 05:18:00,
2013-01-17 22:23:00,-999.0,-99.9,30.12,ENE,68,0.4,2.7,-999,0.00,,,0.00,WSDL version 420,2013-01-18 05:23:00,
2013-01-17 22:33:00,-999.0,-99.9,30.12,ENE,68,1.1,1.1,-999,0.00,,,0.00,WSDL version 420,2013-01-18 05:33:00,
2013-01-17 22:38:00,-999.0,-99.9,30.12,North,-999,-999.0,-999.0,-999,0.00,,,0.00,WSDL version 420,2013-01-18 05:38:00,
2013-01-17 22:43:00,-999.0,-99.9,30.12,ENE,68,1.2,2.5,-999,0.00,,,0.00,WSDL version 420,2013-01-18 05:43:00,
2013-01-17 22:48:00,-999.0,-99.9,30.12,ENE,68,0.4,2.5,-999,0.00,,,0.00,WSDL version 420,2013-01-18 05:48:00,
2013-01-17 22:53:00,34.5,6.3,30.12,ENE,68,0.0,1.3,30,0.00,,,0.00,WSDL version 420,2013-01-18 05:53:00,
2013-01-17 22:58:00,34.4,6.1,30.09,ENE,68,1.3,1.6,30,0.00,,,0.00,WSDL version 420,2013-01-18 05:58:00,
2013-01-17 23:03:00,-999.0,-99.9,30.09,SE,135,2.0,2.7,-999,0.00,,,0.00,WSDL version 420,2013-01-18 06:03:00,
2013-01-17 23:08:00,33.5,5.4,30.09,SE,135,1.2,2.7,30,0.00,,,0.00,WSDL version 420,2013-01-18 06:08:00,
2013-01-17 23:13:00,33.3,5.2,30.09,SE,135,0.0,2.7,30,0.00,,,0.00,WSDL version 420,2013-01-18 06:13:00,
2013-01-17 23:23:00,-999.0,-99.9,30.09,SE,135,0.0,0.0,-999,0.00,,,0.00,WSDL version 420,2013-01-18 06:23:00,
2013-01-17 23:28:00,-999.0,-99.9,30.09,SE,135,0.4,2.5,-999,0.00,,,0.00,WSDL version 420,2013-01-18 06:28:00,
2013-01-17 23:33:00,32.7,4.7,30.09,SE,135,1.9,2.9,30,0.00,,,0.00,WSDL version 420,2013-01-18 06:33:00,
2013-01-17 23:38:00,32.4,4.4,30.09,SE,135,2.0,2.9,30,0.00,,,0.00,WSDL version 420,2013-01-18 06:38:00,
2013-01-17 23:43:00,32.3,4.3,30.09,ESE,113,1.8,2.5,30,0.00,,,0.00,WSDL version 420,2013-01-18 06:43:00,
2013-01-17 23:48:00,32.2,4.2,30.09,NE,45,0.9,2.2,30,0.00,,,0.00,WSDL version 420,2013-01-18 06:48:00,
2013-01-17 23:53:00,32.2,4.6,30.09,NE,45,2.2,2.2,31,0.00,,,0.00,WSDL version 420,2013-01-18 06:53:00,
2013-01-17 23:58:00,32.2,4.9,30.09,NE,45,0.6,1.6,31,0.00,,,0.00,WSDL version 420,2013-01-18 06:58:00,